Clarence Center, NY (14032)

11:21 AM EDT on July 28, 2015 (GMT -0400)
Clarence Center | | Change Station
CLOSE
Current Station
Personal Weather Station
Location: Clarence Center, NY
Elevation: 620 ft
Nearby Weather Stations

Elev 620 ft 43.02 °N, 78.65 °W | Updated 26 seconds ago

Clear
Clear
85.1 °F
Feels Like 87 °F
N
1.3
Wind Variable Wind from SW
Gusts 2.5 mph

Today
High -- | Low -- °F
--% Chance of Precip.
Yesterday
High -- | Low -- °F
Precip. -- in
6:00 AM 8:40 PM
Waxing Gibbous, 90% visible
Pressure 30.03 in
Visibility 10.0 miles
Clouds Few 4400 ft
Few 25000 ft
Heat Index 87 °F
Dew Point 64 °F
Humidity 50%
Rainfall 0.00 in
Snow Depth Not available.
UV 6.0 out of 12
Pollen 7.00 out of 12
Air Quality Not available.
Flu Activity Not available.
METAR KBUF 281454Z 20005KT 10SM FEW044 FEW250 28/17 A3004 RMK AO2 SLP168 T02830172 58001

More Conditions Fewer Conditions

Pressure 30.03 in
Visibility 10.0 miles
Clouds Few 4400 ft
Few 25000 ft
Heat Index 87 °F
Dew Point 64 °F
Humidity 50%
Rainfall 0.00 in
Snow Depth Not available.
UV 6.0 out of 12
Pollen 7.00 out of 12
Air Quality Not available.
Flu Activity Not available.
METAR KBUF 281454Z 20005KT 10SM FEW044 FEW250 28/17 A3004 RMK AO2 SLP168 T02830172 58001

More Conditions Fewer Conditions

10-Day Weather Forecast

×

Almanac

Astronomy

Jul. 28, 2015 Rise Set
Actual Time
Civil Twilight
Nautical Twilight
Astronomical Twilight
Moon
Length of Visible Light
Length of Day
Tomorrow will be .
, % of the Moon is Illuminated

Today's Extremes

State Highs State Lows

Community

WunderPhotos

Upload Photos

1,841,852 photos uploaded!

WunderBlogs® & News

Nearby

Air Quality

  Air Quality AQ Index Pollutant
Not available.

Snow Depth

Station Depth Elevation

Earthquake Activity

City Distance Mag. Time & Date
Minimum magnitude displayed is 2.5.

Coastal Water Temperatures

Place Temperature

Stations

Nearby Weather Stations

Station Location Temp. Windchill Dew Point Humidity Wind Precip. Elev Updated Type